Time;durP1;ratioP1;P1;durP2;ratioP2;P2;SDS_P1;SDS_P2;PMS_P1;PMS_P2;Temp;Humidity;BMP_temperature;BMP_pressure;BME280_temperature;BME280_humidity;BME280_pressure;Samples;Min_cycle;Max_cycle;Signal;HPM_P1;HPM_P2
2021/12/11 00:01:19;;;;;;;;;;;6.40;99.90;;;;;;5078879;28;20365;-79
2021/12/11 00:03:47;;;;;;;;;;;6.50;99.90;;;;;;5097217;28;19999;-78
2021/12/11 00:06:15;;;;;;;;;;;6.30;99.90;;;;;;5097175;28;19986;-79
2021/12/11 00:08:41;;;;;;;;;;;6.40;99.90;;;;;;5078931;28;19908;-79
2021/12/11 00:11:15;;;;;;;;;;;6.50;99.90;;;;;;5096779;28;19920;-79
2021/12/11 00:13:41;;;;;;;;;;;6.40;99.90;;;;;;5097072;28;19908;-79
2021/12/11 00:16:08;;;;;;;;;;;6.40;99.90;;;;;;5097018;28;19915;-79
2021/12/11 00:18:34;;;;;;;;;;;6.50;99.90;;;;;;5078762;28;19966;-79
2021/12/11 00:21:02;;;;;;;;;;;6.70;99.90;;;;;;5096903;28;19908;-79
2021/12/11 00:23:51;;;;;;;;;;;6.80;99.90;;;;;;5096802;28;19915;-79
2021/12/11 00:26:31;;;;;;;;;;;6.80;99.90;;;;;;5097074;28;19908;-78
2021/12/11 00:28:57;;;;;;;;;;;6.80;99.90;;;;;;5096863;28;19995;-79
2021/12/11 00:31:23;;;;;;;;;;;6.90;99.90;;;;;;5096628;28;20007;-78
2021/12/11 00:33:50;;;;;;;;;;;6.80;99.90;;;;;;5096962;28;19966;-79
2021/12/11 00:36:17;;;;;;;;;;;6.70;99.90;;;;;;5096591;28;20326;-79
2021/12/11 00:38:47;;;;;;;;;;;6.70;99.90;;;;;;5096750;28;19948;-79
2021/12/11 00:41:14;;;;;;;;;;;6.80;99.90;;;;;;5096446;28;19912;-79
2021/12/11 00:43:40;;;;;;;;;;;6.90;99.90;;;;;;5096656;28;20430;-79
2021/12/11 00:46:07;;;;;;;;;;;6.90;99.90;;;;;;5096689;28;19911;-79
2021/12/11 00:48:33;;;;;;;;;;;6.80;99.90;;;;;;5096346;28;19947;-79
2021/12/11 00:51:01;;;;;;;;;;;7.00;99.90;;;;;;5096259;28;19959;-79
2021/12/11 00:53:27;;;;;;;;;;;7.00;99.90;;;;;;5096267;28;20360;-78
2021/12/11 00:55:55;;;;;;;;;;;7.10;99.90;;;;;;5078083;28;19915;-79
2021/12/11 00:58:26;;;;;;;;;;;7.20;99.90;;;;;;5096182;28;19986;-79
2021/12/11 01:01:04;;;;;;;;;;;7.20;99.90;;;;;;5096108;28;19908;-79
2021/12/11 01:03:33;;;;;;;;;;;7.10;99.90;;;;;;5096057;28;19915;-79
2021/12/11 01:06:02;;;;;;;;;;;7.20;99.90;;;;;;5077860;28;19908;-78
2021/12/11 01:08:32;;;;;;;;;;;7.10;99.90;;;;;;5095709;28;20391;-79
2021/12/11 01:11:17;;;;;;;;;;;7.00;99.90;;;;;;5095627;28;20441;-79
2021/12/11 01:13:46;;;;;;;;;;;7.00;99.90;;;;;;5095210;28;19908;-79
2021/12/11 01:16:15;;;;;;;;;;;6.70;99.90;;;;;;5095811;28;19970;-79
2021/12/11 01:18:43;;;;;;;;;;;6.60;99.90;;;;;;5096077;28;19912;-79
2021/12/11 01:21:44;;;;;;;;;;;6.70;99.90;;;;;;5095701;28;19914;-79
2021/12/11 01:24:28;;;;;;;;;;;6.80;99.90;;;;;;5077265;28;19923;-79
2021/12/11 01:26:54;;;;;;;;;;;6.70;99.90;;;;;;5095996;28;20096;-79
2021/12/11 01:29:21;;;;;;;;;;;6.80;99.90;;;;;;5095642;28;19915;-79
2021/12/11 01:31:48;;;;;;;;;;;6.80;99.90;;;;;;5095459;28;19913;-79
2021/12/11 01:34:14;;;;;;;;;;;6.90;99.90;;;;;;5095569;28;19955;-79
2021/12/11 01:36:39;;;;;;;;;;;6.90;99.90;;;;;;5095461;28;19908;-78
2021/12/11 01:39:12;;;;;;;;;;;7.00;99.90;;;;;;5077141;28;19912;-79
2021/12/11 01:41:38;;;;;;;;;;;7.00;99.90;;;;;;5095509;28;19908;-79
2021/12/11 01:44:06;;;;;;;;;;;7.00;99.90;;;;;;5095299;28;19922;-79
2021/12/11 01:46:32;;;;;;;;;;;7.00;99.90;;;;;;5095641;28;20348;-79
2021/12/11 01:49:00;;;;;;;;;;;7.20;99.90;;;;;;5095210;28;19952;-79
2021/12/11 01:51:41;;;;;;;;;;;7.20;99.90;;;;;;5076970;28;20378;-78
2021/12/11 01:54:13;;;;;;;;;;;7.10;99.90;;;;;;5095119;28;19915;-79
2021/12/11 01:56:41;;;;;;;;;;;7.00;99.90;;;;;;5095506;28;19908;-78
2021/12/11 01:59:10;;;;;;;;;;;7.10;99.90;;;;;;5095371;28;19915;-78
2021/12/11 02:01:35;;;;;;;;;;;7.00;99.90;;;;;;5095019;28;19915;-79
2021/12/11 02:04:02;;;;;;;;;;;6.90;99.90;;;;;;5094921;28;19908;-79
2021/12/11 02:06:29;;;;;;;;;;;6.80;99.90;;;;;;5095376;28;20249;-78
2021/12/11 02:08:55;;;;;;;;;;;6.80;99.90;;;;;;5095124;28;19912;-78
2021/12/11 02:11:22;;;;;;;;;;;6.60;99.90;;;;;;5094493;28;20025;-79
2021/12/11 02:13:52;;;;;;;;;;;6.40;99.90;;;;;;5094735;28;19908;-80
2021/12/11 02:16:29;;;;;;;;;;;6.40;99.90;;;;;;5076429;28;20436;-79
2021/12/11 02:18:58;;;;;;;;;;;6.30;99.90;;;;;;5093882;28;19907;-78
2021/12/11 02:21:27;;;;;;;;;;;6.50;99.90;;;;;;5094640;28;20351;-79
2021/12/11 02:23:56;;;;;;;;;;;6.50;99.90;;;;;;5094544;28;20341;-79
2021/12/11 02:26:22;;;;;;;;;;;6.40;99.90;;;;;;5076316;28;19930;-79
2021/12/11 02:28:50;;;;;;;;;;;6.40;99.90;;;;;;5076224;28;20379;-78
2021/12/11 02:31:19;;;;;;;;;;;6.40;99.90;;;;;;5094337;28;19970;-79
2021/12/11 02:33:55;;;;;;;;;;;6.40;99.90;;;;;;5076186;28;19908;-79
2021/12/11 02:36:30;;;;;;;;;;;6.30;99.90;;;;;;5075903;28;19908;-79
2021/12/11 02:38:57;;;;;;;;;;;6.40;99.90;;;;;;5094595;28;19908;-78
2021/12/11 02:41:32;;;;;;;;;;;6.20;99.90;;;;;;5094230;28;19998;-79
2021/12/11 02:44:04;;;;;;;;;;;6.20;99.90;;;;;;5094157;28;19908;-79
2021/12/11 02:46:38;;;;;;;;;;;6.20;99.90;;;;;;5094239;28;20007;-77
2021/12/11 02:49:04;;;;;;;;;;;6.00;99.90;;;;;;5076019;28;19918;-79
2021/12/11 02:51:34;;;;;;;;;;;5.80;99.90;;;;;;5094225;28;20325;-79
2021/12/11 02:54:05;;;;;;;;;;;5.90;99.90;;;;;;5075922;28;20348;-78
2021/12/11 02:56:43;;;;;;;;;;;5.90;99.90;;;;;;5094162;28;20261;-79
2021/12/11 02:59:13;;;;;;;;;;;5.90;99.90;;;;;;5094597;28;19963;-78
2021/12/11 03:01:44;;;;;;;;;;;6.00;99.90;;;;;;5093963;28;19908;-79
2021/12/11 03:04:20;;;;;;;;;;;6.00;99.90;;;;;;5094109;28;19957;-79
2021/12/11 03:06:49;;;;;;;;;;;6.00;99.90;;;;;;5093887;28;19908;-78
2021/12/11 03:09:20;;;;;;;;;;;6.00;99.90;;;;;;5094296;28;20364;-79
2021/12/11 03:11:46;;;;;;;;;;;5.80;99.90;;;;;;5075488;28;19920;-78
2021/12/11 03:14:14;;;;;;;;;;;6.00;99.90;;;;;;5094031;28;20403;-79
2021/12/11 03:16:40;;;;;;;;;;;6.10;99.90;;;;;;5075699;28;19909;-79
2021/12/11 03:19:08;;;;;;;;;;;6.20;99.90;;;;;;5094009;28;19931;-79
2021/12/11 03:21:34;;;;;;;;;;;6.20;99.90;;;;;;5093731;28;20002;-77
2021/12/11 03:24:00;;;;;;;;;;;6.20;99.90;;;;;;5093686;28;19995;-79
2021/12/11 03:26:26;;;;;;;;;;;6.10;99.90;;;;;;5075623;28;19958;-78
2021/12/11 03:28:53;;;;;;;;;;;6.00;99.90;;;;;;5093649;28;19908;-79
2021/12/11 03:31:18;;;;;;;;;;;5.90;99.90;;;;;;5096797;28;19919;-79
2021/12/11 03:33:46;;;;;;;;;;;5.80;99.90;;;;;;5097817;28;19912;-79
2021/12/11 03:36:13;;;;;;;;;;;6.00;99.90;;;;;;5097853;28;20003;-79
2021/12/11 03:38:39;;;;;;;;;;;6.00;99.90;;;;;;5097776;28;19908;-79
2021/12/11 03:41:05;;;;;;;;;;;6.00;99.90;;;;;;5097611;28;19963;-78
2021/12/11 03:43:31;;;;;;;;;;;6.10;99.90;;;;;;5097772;28;19943;-79
2021/12/11 03:45:58;;;;;;;;;;;5.90;99.90;;;;;;5097701;28;20356;-79
2021/12/11 03:48:31;;;;;;;;;;;5.80;99.90;;;;;;5097591;28;19908;-79
2021/12/11 03:50:58;;;;;;;;;;;5.80;99.90;;;;;;5097840;28;19909;-79
2021/12/11 03:53:23;;;;;;;;;;;5.80;99.90;;;;;;5079309;28;19961;-79
2021/12/11 03:55:52;;;;;;;;;;;5.70;99.90;;;;;;5097429;28;20003;-79
2021/12/11 03:58:18;;;;;;;;;;;5.70;99.90;;;;;;5079196;28;19908;-78
2021/12/11 04:01:07;;;;;;;;;;;5.60;99.90;;;;;;5097529;28;19915;-78
2021/12/11 04:03:34;;;;;;;;;;;5.50;99.90;;;;;;5068429;28;20364;-79
2021/12/11 04:06:02;;;;;;;;;;;5.70;99.90;;;;;;5097298;28;19915;-77
2021/12/11 04:08:29;;;;;;;;;;;5.60;99.90;;;;;;5078894;28;19916;-79
2021/12/11 04:10:56;;;;;;;;;;;5.70;99.90;;;;;;5097233;28;20269;-79
2021/12/11 04:13:22;;;;;;;;;;;5.70;99.90;;;;;;5097253;28;19916;-79
2021/12/11 04:15:49;;;;;;;;;;;5.50;99.90;;;;;;5097274;28;20284;-78
2021/12/11 04:18:14;;;;;;;;;;;5.40;99.90;;;;;;5096960;28;19934;-79
2021/12/11 04:20:42;;;;;;;;;;;5.40;99.90;;;;;;5096895;28;20384;-79
2021/12/11 04:23:11;;;;;;;;;;;5.50;99.90;;;;;;5097280;28;19912;-78
2021/12/11 04:25:37;;;;;;;;;;;5.50;99.90;;;;;;5096981;28;19956;-79
2021/12/11 04:28:04;;;;;;;;;;;5.60;99.90;;;;;;5096910;28;19943;-77
2021/12/11 04:30:29;;;;;;;;;;;5.60;99.90;;;;;;5078472;28;19995;-79
2021/12/11 04:32:56;;;;;;;;;;;5.70;99.90;;;;;;5097069;28;20012;-79
2021/12/11 04:35:26;;;;;;;;;;;5.70;99.90;;;;;;5096653;28;20425;-79
2021/12/11 04:37:52;;;;;;;;;;;5.60;99.90;;;;;;5078427;28;19909;-78
2021/12/11 04:40:20;;;;;;;;;;;5.60;99.90;;;;;;5096453;28;19908;-79
2021/12/11 04:43:03;;;;;;;;;;;5.70;99.90;;;;;;5095689;28;19908;-79
2021/12/11 04:45:33;;;;;;;;;;;5.70;99.90;;;;;;5078028;28;19908;-78
2021/12/11 04:48:10;;;;;;;;;;;5.70;99.90;;;;;;5077901;28;19931;-78
2021/12/11 04:50:54;;;;;;;;;;;5.90;99.90;;;;;;5077964;28;19908;-79
2021/12/11 04:56:12;;;;;;;;;;;5.80;99.90;;;;;;5096519;28;19912;-78
2021/12/11 05:11:50;;;;;;;;;;;5.80;99.90;;;;;;5095594;28;20402;-79
2021/12/11 05:14:16;;;;;;;;;;;5.90;99.90;;;;;;5077527;28;19913;-79
2021/12/11 05:16:42;;;;;;;;;;;5.90;99.90;;;;;;5095873;28;20387;-78
2021/12/11 05:19:08;;;;;;;;;;;6.10;99.90;;;;;;5095807;28;20383;-79
2021/12/11 05:21:34;;;;;;;;;;;6.20;99.90;;;;;;5077657;28;19915;-78
2021/12/11 05:24:00;;;;;;;;;;;6.10;99.90;;;;;;5095783;28;19908;-78
2021/12/11 05:26:26;;;;;;;;;;;5.90;99.90;;;;;;5095835;28;19931;-79
2021/12/11 05:28:52;;;;;;;;;;;5.90;99.90;;;;;;5095608;28;20368;-79
2021/12/11 05:31:18;;;;;;;;;;;6.20;99.90;;;;;;5077343;28;19912;-78
2021/12/11 05:33:44;;;;;;;;;;;6.10;99.90;;;;;;5095548;28;19991;-79
2021/12/11 05:36:11;;;;;;;;;;;6.20;99.90;;;;;;5095440;28;20433;-78
2021/12/11 05:38:39;;;;;;;;;;;6.20;99.90;;;;;;5095589;28;20006;-79
2021/12/11 05:41:06;;;;;;;;;;;6.20;99.90;;;;;;5077164;28;19987;-79
2021/12/11 05:43:32;;;;;;;;;;;6.30;99.90;;;;;;5095329;28;19909;-79
2021/12/11 05:45:57;;;;;;;;;;;6.30;99.90;;;;;;5095525;28;19908;-78
2021/12/11 05:48:23;;;;;;;;;;;6.30;99.90;;;;;;5095255;28;19915;-79
2021/12/11 05:50:52;;;;;;;;;;;6.30;99.90;;;;;;5095175;28;19916;-79
2021/12/11 05:53:18;;;;;;;;;;;6.40;99.90;;;;;;5094296;28;19908;-78
2021/12/11 05:55:46;;;;;;;;;;;6.50;99.90;;;;;;5076760;28;19908;-78
2021/12/11 05:58:13;;;;;;;;;;;6.50;99.90;;;;;;5095251;28;19908;-79
2021/12/11 06:00:42;;;;;;;;;;;6.50;99.90;;;;;;5095011;28;19908;-78
2021/12/11 06:03:08;;;;;;;;;;;6.40;99.90;;;;;;5095515;28;19931;-79
2021/12/11 06:05:33;;;;;;;;;;;6.40;99.90;;;;;;5094922;28;20383;-78
2021/12/11 06:08:00;;;;;;;;;;;6.40;99.90;;;;;;5095285;28;20368;-79
2021/12/11 06:10:27;;;;;;;;;;;6.60;99.90;;;;;;5094783;28;20257;-78
2021/12/11 06:12:55;;;;;;;;;;;6.70;99.90;;;;;;5094222;28;19976;-78
2021/12/11 06:15:20;;;;;;;;;;;6.60;99.90;;;;;;5094813;28;19914;-79
2021/12/11 06:17:47;;;;;;;;;;;6.30;99.90;;;;;;5094668;28;19908;-79
2021/12/11 06:20:15;;;;;;;;;;;6.00;99.90;;;;;;5094650;28;20433;-77
2021/12/11 06:22:41;;;;;;;;;;;6.20;99.90;;;;;;5094634;28;19908;-78
2021/12/11 06:25:14;;;;;;;;;;;6.30;99.90;;;;;;5094497;28;19908;-78
2021/12/11 06:27:40;;;;;;;;;;;6.40;99.90;;;;;;5076337;28;19961;-79
2021/12/11 06:30:06;;;;;;;;;;;6.50;99.90;;;;;;5076229;28;19908;-79
2021/12/11 06:32:32;;;;;;;;;;;6.50;99.90;;;;;;5094264;28;19957;-78
2021/12/11 06:34:59;;;;;;;;;;;6.70;99.90;;;;;;5094412;28;19908;-79
2021/12/11 06:37:24;;;;;;;;;;;6.60;99.90;;;;;;5094302;28;20392;-79
2021/12/11 06:39:51;;;;;;;;;;;6.70;99.90;;;;;;5076100;28;19908;-79
2021/12/11 06:42:18;;;;;;;;;;;6.60;99.90;;;;;;5094242;28;19914;-78
2021/12/11 06:44:44;;;;;;;;;;;6.50;99.90;;;;;;5094209;28;20269;-79
2021/12/11 06:47:10;;;;;;;;;;;6.50;99.90;;;;;;5076050;28;19908;-78
2021/12/11 06:49:37;;;;;;;;;;;6.50;99.90;;;;;;5094147;28;19915;-79
2021/12/11 06:52:05;;;;;;;;;;;6.40;99.90;;;;;;5075892;28;20007;-79
2021/12/11 06:54:31;;;;;;;;;;;6.50;99.90;;;;;;5094181;28;20429;-79
2021/12/11 06:56:57;;;;;;;;;;;6.50;99.90;;;;;;5075863;28;19908;-78
2021/12/11 06:59:23;;;;;;;;;;;6.50;99.90;;;;;;5093942;28;19908;-79
2021/12/11 07:01:49;;;;;;;;;;;6.40;99.90;;;;;;5093997;28;19912;-79
2021/12/11 07:04:15;;;;;;;;;;;6.50;99.90;;;;;;5093872;28;19990;-78
2021/12/11 07:06:42;;;;;;;;;;;6.50;99.90;;;;;;5093752;28;19939;-79
2021/12/11 07:09:09;;;;;;;;;;;6.60;99.90;;;;;;5093857;28;19908;-79
2021/12/11 07:11:35;;;;;;;;;;;6.60;99.90;;;;;;5093740;28;20383;-79
2021/12/11 07:14:00;;;;;;;;;;;6.70;99.90;;;;;;5075675;28;19915;-78
2021/12/11 07:16:26;;;;;;;;;;;6.80;99.90;;;;;;5093769;28;19909;-79
2021/12/11 07:18:52;;;;;;;;;;;6.80;99.90;;;;;;5093766;28;19973;-78
2021/12/11 07:21:18;;;;;;;;;;;6.80;99.90;;;;;;5093743;28;19908;-78
2021/12/11 07:23:47;;;;;;;;;;;6.80;99.90;;;;;;5075575;28;19908;-80
2021/12/11 07:26:17;;;;;;;;;;;6.80;99.90;;;;;;5093754;28;19938;-78
2021/12/11 07:28:53;;;;;;;;;;;6.90;99.90;;;;;;5093980;28;19909;-78
2021/12/11 07:31:19;;;;;;;;;;;6.90;99.90;;;;;;5093620;28;19954;-79
2021/12/11 07:33:45;;;;;;;;;;;6.80;99.90;;;;;;5093618;28;19912;-78
2021/12/11 07:36:11;;;;;;;;;;;6.90;99.90;;;;;;5093632;28;19995;-80
2021/12/11 07:38:37;;;;;;;;;;;7.00;99.90;;;;;;5093615;28;19943;-78
2021/12/11 07:41:05;;;;;;;;;;;7.00;99.90;;;;;;5093483;28;19923;-79
2021/12/11 07:43:30;;;;;;;;;;;7.00;99.90;;;;;;5093862;28;20326;-78
2021/12/11 07:45:56;;;;;;;;;;;6.90;99.90;;;;;;5093745;28;19908;-79
2021/12/11 07:48:22;;;;;;;;;;;6.80;99.90;;;;;;5093517;28;19935;-78
2021/12/11 07:50:48;;;;;;;;;;;6.80;99.90;;;;;;5093507;28;19914;-78
2021/12/11 07:53:14;;;;;;;;;;;6.80;99.90;;;;;;5093721;28;19919;-79
2021/12/11 07:55:40;;;;;;;;;;;7.00;99.90;;;;;;5093629;28;19909;-79
2021/12/11 07:58:06;;;;;;;;;;;6.90;99.90;;;;;;5075218;28;20280;-79
2021/12/11 08:00:32;;;;;;;;;;;6.90;99.90;;;;;;5093365;28;19995;-80
2021/12/11 08:02:58;;;;;;;;;;;6.90;99.90;;;;;;5093347;28;19914;-79
2021/12/11 08:05:26;;;;;;;;;;;6.80;99.90;;;;;;5075518;28;19908;-79
2021/12/11 08:07:52;;;;;;;;;;;6.80;99.90;;;;;;5075197;28;19916;-80
2021/12/11 08:10:19;;;;;;;;;;;7.00;99.90;;;;;;5093279;28;19907;-79
2021/12/11 08:12:45;;;;;;;;;;;7.10;99.90;;;;;;5074657;28;19924;-79
2021/12/11 08:15:12;;;;;;;;;;;7.10;99.90;;;;;;5093604;28;19961;-79
2021/12/11 08:17:37;;;;;;;;;;;7.00;99.90;;;;;;5094998;28;19930;-79
2021/12/11 08:20:06;;;;;;;;;;;6.90;99.90;;;;;;5096996;28;19908;-79
2021/12/11 08:22:32;;;;;;;;;;;6.80;99.90;;;;;;5078342;28;19908;-79
2021/12/11 08:24:57;;;;;;;;;;;6.90;99.90;;;;;;5096877;28;19908;-79
2021/12/11 08:27:23;;;;;;;;;;;6.90;99.90;;;;;;5096869;28;19908;-79
2021/12/11 08:29:51;;;;;;;;;;;7.00;99.90;;;;;;5097019;28;20367;-79
2021/12/11 08:32:17;;;;;;;;;;;7.10;99.90;;;;;;5096590;28;19912;-78
2021/12/11 08:34:43;;;;;;;;;;;7.10;99.90;;;;;;5096837;28;19908;-78
2021/12/11 08:37:10;;;;;;;;;;;7.10;99.90;;;;;;5096699;28;20373;-78
2021/12/11 08:39:36;;;;;;;;;;;7.00;99.90;;;;;;5096405;28;19908;-78
2021/12/11 08:42:03;;;;;;;;;;;7.00;99.90;;;;;;5096497;28;20284;-79
2021/12/11 08:44:34;;;;;;;;;;;7.20;99.90;;;;;;5096873;28;19908;-79
2021/12/11 08:47:01;;;;;;;;;;;7.20;99.90;;;;;;5096734;28;19908;-78
2021/12/11 08:49:28;;;;;;;;;;;7.20;99.90;;;;;;5096626;28;19908;-79
2021/12/11 08:51:59;;;;;;;;;;;7.30;99.90;;;;;;5096254;28;19919;-79
2021/12/11 08:54:27;;;;;;;;;;;7.30;99.90;;;;;;5096808;28;19912;-79
2021/12/11 08:56:53;;;;;;;;;;;7.20;99.90;;;;;;5096308;28;19999;-80
2021/12/11 08:59:20;;;;;;;;;;;7.00;99.90;;;;;;5096268;28;19958;-78
2021/12/11 09:01:52;;;;;;;;;;;7.10;99.90;;;;;;5096202;28;19908;-79
2021/12/11 09:04:22;;;;;;;;;;;7.30;99.90;;;;;;5096179;28;19908;-79
2021/12/11 09:06:50;;;;;;;;;;;7.30;99.90;;;;;;5096626;28;19908;-78
2021/12/11 09:09:16;;;;;;;;;;;7.50;99.90;;;;;;5096024;28;19908;-78
2021/12/11 09:11:47;;;;;;;;;;;7.60;99.90;;;;;;5095668;28;19943;-79
2021/12/11 09:14:13;;;;;;;;;;;7.90;99.90;;;;;;5096516;28;20377;-80
2021/12/11 09:16:47;;;;;;;;;;;8.10;99.90;;;;;;5095899;28;20042;-79
2021/12/11 09:19:13;;;;;;;;;;;8.30;99.90;;;;;;5095977;28;19908;-79
2021/12/11 09:21:42;;;;;;;;;;;8.80;99.90;;;;;;5095948;28;20253;-80
2021/12/11 09:24:10;;;;;;;;;;;9.10;99.90;;;;;;5095795;28;19931;-80
2021/12/11 09:26:45;;;;;;;;;;;9.50;99.90;;;;;;5096029;28;19908;-80
2021/12/11 09:29:37;;;;;;;;;;;9.30;99.90;;;;;;5095470;28;19915;-80
2021/12/11 09:32:16;;;;;;;;;;;9.50;99.90;;;;;;5091357;28;19912;-80
2021/12/11 09:34:51;;;;;;;;;;;9.10;99.90;;;;;;5058957;28;19920;-80
2021/12/11 09:37:17;;;;;;;;;;;8.90;99.90;;;;;;5075264;28;19914;-80
2021/12/11 09:39:46;;;;;;;;;;;8.60;99.90;;;;;;5075262;28;20293;-79
2021/12/11 09:42:12;;;;;;;;;;;8.70;99.90;;;;;;5075414;28;19912;-81
2021/12/11 09:44:58;;;;;;;;;;;8.60;99.90;;;;;;5088950;28;19908;-80
2021/12/11 09:47:28;;;;;;;;;;;8.60;99.90;;;;;;5095509;28;20370;-80
2021/12/11 09:49:58;;;;;;;;;;;8.40;99.90;;;;;;5095530;28;19915;-79
2021/12/11 09:52:26;;;;;;;;;;;8.70;99.90;;;;;;5095472;28;19919;-80
2021/12/11 09:54:54;;;;;;;;;;;9.00;99.90;;;;;;5078656;28;19954;-80
2021/12/11 09:57:21;;;;;;;;;;;9.10;99.90;;;;;;5075182;28;19909;-78
2021/12/11 09:59:49;;;;;;;;;;;9.40;99.90;;;;;;5075209;28;20368;-79
2021/12/11 10:02:23;;;;;;;;;;;9.10;99.90;;;;;;5074769;28;20440;-80
2021/12/11 10:05:00;;;;;;;;;;;9.30;99.90;;;;;;5089929;28;19960;-81
2021/12/11 10:07:34;;;;;;;;;;;9.60;99.90;;;;;;5076521;28;19934;-78
2021/12/11 10:10:12;;;;;;;;;;;10.00;99.90;;;;;;5076909;28;19908;-81
2021/12/11 10:12:40;;;;;;;;;;;10.10;99.90;;;;;;5072848;28;19928;-80
2021/12/11 10:15:23;;;;;;;;;;;10.40;99.90;;;;;;5056607;28;19909;-80
2021/12/11 10:17:52;;;;;;;;;;;10.60;99.90;;;;;;5054758;28;19920;-80
2021/12/11 10:20:27;;;;;;;;;;;10.60;99.90;;;;;;5053254;28;19920;-81
2021/12/11 10:22:58;;;;;;;;;;;10.80;99.90;;;;;;5054781;28;19909;-80
2021/12/11 10:25:27;;;;;;;;;;;11.00;99.90;;;;;;5073261;28;19916;-79
2021/12/11 10:27:53;;;;;;;;;;;11.10;99.90;;;;;;5074372;28;20334;-80
2021/12/11 10:30:21;;;;;;;;;;;11.20;99.90;;;;;;5074393;28;19995;-80
2021/12/11 10:32:47;;;;;;;;;;;11.70;99.90;;;;;;5074344;28;19913;-81
2021/12/11 10:35:17;;;;;;;;;;;12.10;99.90;;;;;;5053264;28;19916;-78
2021/12/11 10:37:43;;;;;;;;;;;12.60;99.90;;;;;;5074533;28;19909;-80
2021/12/11 10:40:11;;;;;;;;;;;12.60;99.90;;;;;;5073573;28;19908;-80
2021/12/11 10:42:37;;;;;;;;;;;12.70;99.90;;;;;;5074373;28;19940;-80
2021/12/11 10:45:04;;;;;;;;;;;12.90;99.90;;;;;;5058380;28;19962;-80
2021/12/11 10:47:35;;;;;;;;;;;12.70;99.90;;;;;;5053184;28;19951;-80
2021/12/11 10:50:03;;;;;;;;;;;12.40;99.90;;;;;;5054378;28;20304;-80
2021/12/11 10:52:30;;;;;;;;;;;12.00;99.90;;;;;;5052695;28;20004;-79
2021/12/11 10:54:57;;;;;;;;;;;12.10;99.90;;;;;;5067805;28;19991;-81
2021/12/11 10:57:23;;;;;;;;;;;12.30;99.90;;;;;;5074401;28;19912;-81
2021/12/11 10:59:52;;;;;;;;;;;12.70;99.90;;;;;;5074480;28;19920;-80
2021/12/11 11:02:23;;;;;;;;;;;13.80;99.90;;;;;;5073930;28;19909;-80
2021/12/11 11:04:55;;;;;;;;;;;14.50;99.90;;;;;;5060869;28;19920;-81
2021/12/11 11:07:21;;;;;;;;;;;14.20;99.90;;;;;;5054283;28;19909;-80
2021/12/11 11:09:48;;;;;;;;;;;14.00;99.90;;;;;;5052682;28;19971;-80
2021/12/11 11:12:17;;;;;;;;;;;13.80;99.90;;;;;;5067015;28;19973;-80
2021/12/11 11:14:43;;;;;;;;;;;13.70;99.90;;;;;;5073634;28;19909;-79
2021/12/11 11:17:11;;;;;;;;;;;13.30;99.90;;;;;;5055993;28;19908;-80
2021/12/11 11:19:40;;;;;;;;;;;13.00;99.90;;;;;;5073561;28;19963;-80
2021/12/11 11:22:07;;;;;;;;;;;13.00;99.90;;;;;;5073921;28;20289;-80
2021/12/11 11:24:38;;;;;;;;;;;12.90;99.90;;;;;;5073532;28;19909;-81
2021/12/11 11:27:04;;;;;;;;;;;12.80;99.90;;;;;;5073517;28;19908;-81
2021/12/11 11:29:30;;;;;;;;;;;12.60;99.90;;;;;;5073771;28;19991;-79
2021/12/11 11:31:58;;;;;;;;;;;12.50;99.90;;;;;;5073424;28;19919;-80
2021/12/11 11:34:26;;;;;;;;;;;12.50;99.90;;;;;;5073457;28;19992;-79
2021/12/11 11:36:53;;;;;;;;;;;12.30;99.90;;;;;;5073838;28;19915;-80
2021/12/11 11:39:20;;;;;;;;;;;12.30;99.90;;;;;;5073374;28;20361;-80
2021/12/11 11:41:50;;;;;;;;;;;12.30;99.90;;;;;;5073384;28;20361;-79
2021/12/11 11:44:21;;;;;;;;;;;12.40;99.90;;;;;;5073655;28;20003;-81
2021/12/11 11:46:47;;;;;;;;;;;12.30;99.90;;;;;;5071975;28;19915;-80
2021/12/11 11:49:14;;;;;;;;;;;12.20;99.90;;;;;;5072339;28;19909;-79
2021/12/11 11:51:44;;;;;;;;;;;12.10;99.90;;;;;;5075067;28;19939;-80
2021/12/11 11:54:11;;;;;;;;;;;12.10;99.90;;;;;;5077357;28;19909;-80
2021/12/11 11:56:39;;;;;;;;;;;12.00;99.90;;;;;;5059183;28;19931;-80
2021/12/11 11:59:07;;;;;;;;;;;12.00;99.90;;;;;;5077166;28;19958;-79
2021/12/11 12:01:37;;;;;;;;;;;11.90;99.90;;;;;;5077294;28;20277;-80
2021/12/11 12:04:03;;;;;;;;;;;11.80;99.90;;;;;;5058740;28;20280;-80
2021/12/11 12:06:32;;;;;;;;;;;11.70;99.90;;;;;;5076658;28;19909;-78
2021/12/11 12:08:59;;;;;;;;;;;11.70;99.90;;;;;;5076894;28;19915;-79
2021/12/11 12:11:31;;;;;;;;;;;11.60;99.90;;;;;;5076557;28;19925;-80
2021/12/11 12:13:57;;;;;;;;;;;11.50;99.90;;;;;;5058582;28;19909;-79
2021/12/11 12:16:23;;;;;;;;;;;11.50;99.90;;;;;;5058905;28;19915;-81
2021/12/11 12:18:49;;;;;;;;;;;11.60;99.90;;;;;;5076800;28;19962;-80
2021/12/11 12:21:16;;;;;;;;;;;11.60;99.90;;;;;;5058831;28;19916;-79
2021/12/11 12:23:42;;;;;;;;;;;11.50;99.90;;;;;;5076777;28;19958;-80
2021/12/11 12:26:13;;;;;;;;;;;11.60;99.90;;;;;;5076899;28;20323;-79
2021/12/11 12:28:39;;;;;;;;;;;11.60;99.90;;;;;;5076551;28;20012;-79
2021/12/11 12:31:08;;;;;;;;;;;11.70;99.90;;;;;;5076423;28;19966;-79
2021/12/11 12:33:34;;;;;;;;;;;11.80;99.90;;;;;;5076551;28;19908;-80
2021/12/11 12:36:00;;;;;;;;;;;12.00;99.90;;;;;;5076601;28;19987;-80
2021/12/11 12:38:27;;;;;;;;;;;12.00;99.90;;;;;;5076611;28;19951;-80
2021/12/11 12:40:59;;;;;;;;;;;12.10;99.90;;;;;;5076341;28;19908;-80
2021/12/11 12:43:54;;;;;;;;;;;12.30;99.90;;;;;;5058160;28;19961;-80
2021/12/11 12:46:23;;;;;;;;;;;12.30;99.90;;;;;;5076123;28;19954;-79
2021/12/11 12:48:49;;;;;;;;;;;12.30;99.90;;;;;;5076328;28;19912;-80
2021/12/11 12:51:15;;;;;;;;;;;12.40;99.90;;;;;;5076364;28;19908;-80
2021/12/11 12:53:44;;;;;;;;;;;12.40;99.90;;;;;;5058188;28;19947;-81
2021/12/11 12:56:16;;;;;;;;;;;12.50;99.90;;;;;;5058203;28;20391;-80
2021/12/11 12:58:41;;;;;;;;;;;12.70;99.90;;;;;;5076062;28;19923;-80
2021/12/11 13:01:10;;;;;;;;;;;12.90;99.90;;;;;;5076188;28;20324;-80
2021/12/11 13:03:37;;;;;;;;;;;12.80;99.90;;;;;;5075305;28;19915;-79
2021/12/11 13:06:09;;;;;;;;;;;12.70;99.90;;;;;;5075984;28;19908;-80
2021/12/11 13:08:47;;;;;;;;;;;12.80;99.90;;;;;;5076163;28;19965;-80
2021/12/11 13:11:20;;;;;;;;;;;12.60;99.90;;;;;;5075557;28;20011;-79
2021/12/11 13:13:48;;;;;;;;;;;12.40;99.90;;;;;;5075743;28;20408;-79
2021/12/11 13:16:25;;;;;;;;;;;12.20;99.90;;;;;;5057718;28;19909;-80
2021/12/11 13:18:54;;;;;;;;;;;12.10;99.90;;;;;;5075960;28;20003;-80
2021/12/11 13:21:31;;;;;;;;;;;12.10;99.90;;;;;;5075590;28;19908;-79
2021/12/11 13:23:58;;;;;;;;;;;12.20;99.90;;;;;;5075731;28;19998;-79
2021/12/11 13:26:25;;;;;;;;;;;12.10;99.90;;;;;;5057601;28;20343;-80
2021/12/11 13:28:55;;;;;;;;;;;11.70;99.90;;;;;;5057507;28;20339;-80
2021/12/11 13:31:39;;;;;;;;;;;11.70;99.90;;;;;;5075584;28;19909;-79
2021/12/11 13:34:05;;;;;;;;;;;11.70;99.90;;;;;;5075430;28;19908;-80
2021/12/11 13:36:31;;;;;;;;;;;11.70;99.90;;;;;;5075334;28;19908;-80
2021/12/11 13:38:57;;;;;;;;;;;11.70;99.90;;;;;;5075515;28;19909;-80
2021/12/11 13:41:26;;;;;;;;;;;11.60;99.90;;;;;;5075165;28;19970;-80
2021/12/11 13:43:52;;;;;;;;;;;11.60;99.90;;;;;;5075165;28;20384;-79
2021/12/11 13:46:17;;;;;;;;;;;11.50;99.90;;;;;;5057150;28;19908;-80
2021/12/11 13:48:44;;;;;;;;;;;11.50;99.90;;;;;;5075042;28;19970;-80
2021/12/11 13:51:29;;;;;;;;;;;11.50;99.90;;;;;;5074923;28;19909;-79
2021/12/11 13:53:59;;;;;;;;;;;11.40;99.90;;;;;;5074320;28;20009;-80
2021/12/11 13:56:27;;;;;;;;;;;11.20;99.90;;;;;;5056939;28;19922;-79
2021/12/11 13:58:53;;;;;;;;;;;11.20;99.90;;;;;;5074771;28;20368;-79
2021/12/11 14:01:22;;;;;;;;;;;11.30;99.90;;;;;;5075249;28;19916;-79
2021/12/11 14:03:48;;;;;;;;;;;11.20;99.90;;;;;;5056802;28;19916;-79
2021/12/11 14:06:13;;;;;;;;;;;11.20;99.90;;;;;;5056769;28;19908;-79
2021/12/11 14:08:40;;;;;;;;;;;11.10;99.90;;;;;;5074673;28;19991;-80
2021/12/11 14:11:07;;;;;;;;;;;11.10;99.90;;;;;;5074752;28;19920;-79
2021/12/11 14:13:33;;;;;;;;;;;11.00;99.90;;;;;;5074736;28;19908;-79
2021/12/11 14:15:59;;;;;;;;;;;11.00;99.90;;;;;;5073539;28;19908;-78
2021/12/11 14:18:25;;;;;;;;;;;10.90;99.90;;;;;;5056640;28;19912;-79
2021/12/11 14:20:53;;;;;;;;;;;10.90;99.90;;;;;;5074408;28;20373;-80
2021/12/11 14:23:21;;;;;;;;;;;10.70;99.90;;;;;;5056388;28;19999;-78
2021/12/11 14:25:48;;;;;;;;;;;10.70;99.90;;;;;;5074840;28;20299;-79
2021/12/11 14:28:16;;;;;;;;;;;10.70;99.90;;;;;;5074342;28;19909;-79
2021/12/11 14:30:44;;;;;;;;;;;10.70;99.90;;;;;;5074288;28;19908;-79
2021/12/11 14:33:10;;;;;;;;;;;10.60;99.90;;;;;;5074143;28;19912;-80
2021/12/11 14:35:36;;;;;;;;;;;10.50;99.90;;;;;;5074126;28;20000;-80
2021/12/11 14:38:06;;;;;;;;;;;10.40;99.90;;;;;;5074223;28;19915;-79
2021/12/11 14:40:33;;;;;;;;;;;10.50;99.90;;;;;;5073997;28;20014;-80
2021/12/11 14:42:59;;;;;;;;;;;10.50;99.90;;;;;;5074050;28;19957;-79
2021/12/11 14:45:26;;;;;;;;;;;10.50;99.90;;;;;;5056065;28;20385;-79
2021/12/11 14:47:52;;;;;;;;;;;10.50;99.90;;;;;;5073966;28;19995;-80
2021/12/11 14:50:20;;;;;;;;;;;10.40;99.90;;;;;;5074009;28;20388;-79